Terminal Aerodrome Forecast
Issued by NWS Grand Rapids, MI

Home | Current Version | Previous Version | Text Only | Print | Product List | Glossary On
Versions: 1 2 3 4 5 6 7 8 9 10 11 12 13 14 15 16 17
676
FTUS43 KGRR 081729
TAFGRR
TAF
KGRR 081729Z 0818/0918 24006KT P6SM BKN025
     FM082000 24007KT P6SM -SHSN OVC025
     FM082200 28007KT P6SM -SHSN OVC015
     FM090000 29009KT 5SM -SHSN BR OVC015
     FM090900 30010KT 4SM -SHSN BR OVC009
     FM091300 31009KT P6SM VCSH OVC025=

USA.gov is the U.S. government's official web portal to all federal, state and local government web resources and services.